Time;durP1;ratioP1;P1;durP2;ratioP2;P2;SDS_P1;SDS_P2;PMS_P1;PMS_P2;Temp;Humidity;BMP_temperature;BMP_pressure;BME280_temperature;BME280_humidity;BME280_pressure;Samples;Min_cycle;Max_cycle;Signal;HPM_P1;HPM_P2
2021/10/26 00:01:48;;;;;;;11.80;4.05;;;;;;;-0.70;71.14;100579.81;4984268;28;20050;-79
2021/10/26 00:04:13;;;;;;;10.60;4.30;;;;;;;-0.72;71.32;100571.22;4941616;28;20492;-79
2021/10/26 00:06:39;;;;;;;7.40;3.70;;;;;;;-0.72;71.44;100579.84;4958619;28;20183;-80
2021/10/26 00:09:05;;;;;;;15.05;4.35;;;;;;;-0.72;71.67;100577.25;4976455;28;20050;-80
2021/10/26 00:11:34;;;;;;;10.73;3.80;;;;;;;-0.73;71.83;100566.91;4975532;28;20047;-80
2021/10/26 00:14:01;;;;;;;9.30;3.63;;;;;;;-0.70;71.76;100565.09;4976146;28;20035;-80
2021/10/26 00:16:26;;;;;;;7.82;3.45;;;;;;;-0.69;71.68;100558.16;4959091;28;20054;-82
2021/10/26 00:18:53;;;;;;;9.43;3.22;;;;;;;-0.66;71.73;100560.72;4944310;28;20411;-81
2021/10/26 00:21:19;;;;;;;8.75;3.60;;;;;;;-0.67;71.72;100544.25;4958729;28;20046;-78
2021/10/26 00:23:45;;;;;;;9.10;3.92;;;;;;;-0.66;72.06;100553.78;4975172;28;20043;-77
2021/10/26 00:26:11;;;;;;;12.52;3.90;;;;;;;-0.65;72.31;100554.63;4976173;28;20069;-78
2021/10/26 00:28:38;;;;;;;8.75;3.60;;;;;;;-0.63;72.44;100555.47;4942780;28;20472;-80
2021/10/26 00:31:04;;;;;;;13.25;3.78;;;;;;;-0.61;72.37;100553.72;4957115;28;20125;-77
2021/10/26 00:33:30;;;;;;;12.02;3.90;;;;;;;-0.59;72.49;100549.31;4959030;28;20059;-78
2021/10/26 00:35:56;;;;;;;15.32;4.57;;;;;;;-0.58;72.34;100540.66;4968719;28;20507;-79
2021/10/26 00:38:22;;;;;;;11.65;4.28;;;;;;;-0.60;72.89;100539.81;4995712;28;20116;-82
2021/10/26 00:40:48;;;;;;;17.85;6.00;;;;;;;-0.58;72.67;100543.25;4945179;28;20049;-83
2021/10/26 00:43:15;;;;;;;12.30;3.70;;;;;;;-0.58;72.85;100535.47;4971862;28;20057;-80
2021/10/26 00:45:41;;;;;;;8.70;3.42;;;;;;;-0.55;72.95;100532.81;4946265;28;20043;-78
2021/10/26 00:48:07;;;;;;;12.23;4.30;;;;;;;-0.55;72.83;100540.63;4975558;28;20129;-81
2021/10/26 00:50:33;;;;;;;12.00;3.58;;;;;;;-0.56;72.95;100530.22;4971819;28;20121;-79
2021/10/26 00:52:59;;;;;;;8.98;3.67;;;;;;;-0.56;73.05;100536.28;4940752;28;20054;-78
2021/10/26 00:55:25;;;;;;;10.07;3.63;;;;;;;-0.54;72.92;100533.66;4924427;28;20046;-77
2021/10/26 00:57:51;;;;;;;11.32;3.75;;;;;;;-0.58;73.20;100543.25;4973863;28;20039;-76
2021/10/26 01:00:20;;;;;;;10.95;3.92;;;;;;;-0.58;73.26;100538.06;4957137;28;20050;-76
2021/10/26 01:02:46;;;;;;;13.60;3.50;;;;;;;-0.58;73.51;100532.00;4940946;28;20034;-76
2021/10/26 01:05:22;;;;;;;10.13;3.85;;;;;;;-0.60;73.60;100529.41;4956785;28;20484;-74
2021/10/26 01:07:48;;;;;;;10.95;3.47;;;;;;;-0.59;73.59;100536.34;4940792;28;20049;-76
2021/10/26 01:10:14;;;;;;;11.23;3.60;;;;;;;-0.58;73.31;100524.22;4956824;28;20125;-75
2021/10/26 01:12:41;;;;;;;14.82;4.18;;;;;;;-0.56;73.68;100523.31;4943174;28;20085;-77
2021/10/26 01:15:09;;;;;;;9.77;3.40;;;;;;;-0.55;73.74;100526.75;4958322;28;20054;-80
2021/10/26 01:17:37;;;;;;;9.15;3.85;;;;;;;-0.59;73.89;100525.94;4973980;28;20051;-78
2021/10/26 01:20:04;;;;;;;9.65;4.03;;;;;;;-0.60;73.83;100520.78;4941073;28;20055;-76
2021/10/26 01:22:34;;;;;;;15.02;4.75;;;;;;;-0.60;73.94;100523.38;4954910;28;20070;-78
2021/10/26 01:25:00;;;;;;;8.07;3.35;;;;;;;-0.58;74.32;100521.63;4956200;28;20050;-77
2021/10/26 01:27:28;;;;;;;;;;;;;;;-0.57;73.68;100513.78;4953463;28;20046;-78
2021/10/26 01:29:55;;;;;;;7.97;4.38;;;;;;;-0.61;73.95;100526.84;4969252;28;20020;-78
2021/10/26 01:32:25;;;;;;;11.68;3.78;;;;;;;-0.64;74.11;100512.19;4973140;28;20472;-77
2021/10/26 01:35:02;;;;;;;9.10;3.67;;;;;;;-0.64;74.57;100506.97;4953788;29;20055;-79
2021/10/26 01:37:31;;;;;;;7.97;3.42;;;;;;;-0.63;74.29;100508.69;4962972;28;20051;-79
2021/10/26 01:39:58;;;;;;;12.20;4.35;;;;;;;-0.63;74.34;100510.47;4975397;28;20134;-78
2021/10/26 01:42:25;;;;;;;12.02;3.63;;;;;;;-0.64;74.03;100506.97;4942224;28;20495;-85
2021/10/26 01:44:55;;;;;;;16.30;4.60;;;;;;;-0.61;74.40;100511.28;4960347;28;20061;-84
2021/10/26 01:47:25;;;;;;;10.85;3.50;;;;;;;-0.62;74.37;100505.22;4928547;28;20057;-81
2021/10/26 01:49:54;;;;;;;9.25;3.50;;;;;;;-0.65;74.52;100507.84;4927847;28;20046;-83
2021/10/26 01:52:23;;;;;;;12.98;4.15;;;;;;;-0.63;74.55;100500.06;4951962;28;20043;-80
2021/10/26 01:54:49;;;;;;;8.52;3.90;;;;;;;-0.62;74.31;100489.63;4962071;28;20105;-82
2021/10/26 01:57:20;;;;;;;10.85;3.88;;;;;;;-0.63;74.60;100487.06;4956756;28;20047;-84
2021/10/26 01:59:57;;;;;;;12.38;3.92;;;;;;;-0.64;74.51;100481.00;4938951;28;20242;-82
2021/10/26 02:02:25;;;;;;;12.32;4.00;;;;;;;-0.64;74.66;100474.97;4968576;29;20441;-80
2021/10/26 02:04:52;;;;;;;10.50;3.75;;;;;;;-0.61;75.03;100467.09;4969521;28;20424;-77
2021/10/26 02:07:18;;;;;;;9.23;3.72;;;;;;;-0.62;75.00;100468.84;4953247;29;20134;-78
2021/10/26 02:09:45;;;;;;;12.02;3.70;;;;;;;-0.65;74.69;100468.91;4955754;28;20098;-77
2021/10/26 02:12:12;;;;;;;25.63;4.93;;;;;;;-0.63;74.96;100467.13;4956562;28;20047;-79
2021/10/26 02:14:38;;;;;;;13.80;4.03;;;;;;;-0.62;74.81;100468.84;4955631;28;20096;-80
2021/10/26 02:17:06;;;;;;;8.60;3.10;;;;;;;-0.65;74.62;100468.91;4938707;28;20067;-77
2021/10/26 02:19:33;;;;;;;54.60;21.25;;;;;;;-0.64;74.97;100465.41;4974501;28;20042;-76
2021/10/26 02:21:59;;;;;;;12.05;3.83;;;;;;;-0.61;74.93;100455.00;4959127;28;20102;-77
2021/10/26 02:24:26;;;;;;;11.70;3.70;;;;;;;-0.60;74.76;100451.47;4973188;28;20444;-77
2021/10/26 02:26:52;;;;;;;10.25;3.65;;;;;;;-0.59;74.99;100462.75;4957625;28;20046;-82
2021/10/26 02:29:19;;;;;;;9.00;3.70;;;;;;;-0.59;74.92;100452.34;4941187;29;20074;-81
2021/10/26 02:31:46;;;;;;;9.65;3.33;;;;;;;-0.60;74.79;100446.28;4938285;28;20055;-77
2021/10/26 02:34:12;;;;;;;9.50;3.65;;;;;;;-0.59;74.70;100448.00;4955481;28;20090;-79
2021/10/26 02:36:38;;;;;;;8.02;3.28;;;;;;;-0.57;74.69;100446.25;4955040;28;20053;-80
2021/10/26 02:39:05;;;;;;;12.95;3.78;;;;;;;-0.56;74.80;100450.56;4936385;28;20051;-78
2021/10/26 02:41:31;;;;;;;8.20;3.78;;;;;;;-0.58;74.79;100452.31;4953132;29;20043;-80
2021/10/26 02:43:58;;;;;;;12.57;3.65;;;;;;;-0.61;75.02;100452.38;4953766;28;21059;-78
2021/10/26 02:46:23;;;;;;;11.07;3.72;;;;;;;-0.61;75.20;100449.78;4956419;28;20046;-76
2021/10/26 02:48:50;;;;;;;13.32;4.18;;;;;;;-0.60;75.01;100445.44;4955613;28;20038;-81
2021/10/26 02:51:16;;;;;;;12.80;4.15;;;;;;;-0.63;75.25;100443.75;4955719;28;20625;-78
2021/10/26 02:53:43;;;;;;;12.77;4.10;;;;;;;-0.65;75.15;100448.13;4955631;28;20051;-81
2021/10/26 02:56:12;;;;;;;16.42;4.63;;;;;;;-0.67;75.09;100436.91;4956020;28;20074;-79
2021/10/26 02:58:37;;;;;;;53.03;18.35;;;;;;;-0.65;75.00;100437.72;4955524;28;20082;-77
2021/10/26 03:01:04;;;;;;;33.22;11.18;;;;;;;-0.63;75.17;100435.13;4956039;28;20096;-80
2021/10/26 03:03:30;;;;;;;8.05;3.92;;;;;;;-0.62;75.29;100427.28;4957125;28;20100;-79
2021/10/26 03:05:56;;;;;;;8.98;3.33;;;;;;;-0.62;75.26;100424.69;4941333;28;20482;-79
2021/10/26 03:08:22;;;;;;;14.45;4.00;;;;;;;-0.61;75.14;100423.81;4956593;28;20096;-78
2021/10/26 03:10:49;;;;;;;9.35;4.20;;;;;;;-0.61;75.16;100423.81;4956575;28;20130;-81
2021/10/26 03:13:21;;;;;;;19.33;6.00;;;;;;;-0.63;75.29;100416.94;4944027;28;20047;-84
2021/10/26 03:15:47;;;;;;;11.82;4.38;;;;;;;-0.62;75.28;100416.91;4944142;28;20053;-80
2021/10/26 03:18:17;;;;;;;13.85;3.83;;;;;;;-0.66;75.28;100410.06;4956385;29;20055;-81
2021/10/26 03:20:43;;;;;;;10.88;3.53;;;;;;;-0.64;75.25;100417.81;4926457;28;20039;-79
2021/10/26 03:23:12;;;;;;;16.45;3.75;;;;;;;-0.65;75.45;100419.53;4972262;28;20397;-82
2021/10/26 03:25:40;;;;;;;15.73;4.40;;;;;;;-0.65;75.40;100416.94;4977045;28;20039;-79
2021/10/26 03:28:08;;;;;;;8.70;3.72;;;;;;;-0.68;75.72;100417.03;4973048;28;20061;-82
2021/10/26 03:30:34;;;;;;;12.13;3.95;;;;;;;-0.67;75.40;100423.94;4993087;28;20124;-79
2021/10/26 03:33:13;;;;;;;9.85;3.78;;;;;;;-0.66;75.43;100415.25;4947879;28;20054;-80
2021/10/26 03:35:50;;;;;;;22.98;4.60;;;;;;;-0.70;75.67;100413.56;4960651;28;20047;-78
2021/10/26 03:38:17;;;;;;;9.85;3.53;;;;;;;-0.70;75.60;100419.66;4945403;28;20047;-77
2021/10/26 03:40:42;;;;;;;16.02;4.75;;;;;;;-0.71;75.52;100411.88;4960088;28;20065;-79
2021/10/26 03:43:08;;;;;;;331.63;90.68;;;;;;;-0.74;75.76;100417.13;4957881;28;20514;-79
2021/10/26 03:45:35;;;;;;;13.95;4.47;;;;;;;-0.76;75.70;100395.50;4957977;28;20117;-79
2021/10/26 03:48:03;;;;;;;15.63;4.65;;;;;;;-0.69;75.66;100399.72;4939086;29;20050;-77
2021/10/26 03:50:30;;;;;;;11.52;3.90;;;;;;;-0.70;75.51;100387.59;4953991;28;20117;-79
2021/10/26 03:52:56;;;;;;;11.80;3.93;;;;;;;-0.73;75.61;100398.91;4926186;28;20051;-79
2021/10/26 03:55:22;;;;;;;15.15;4.43;;;;;;;-0.73;75.75;100393.72;4977229;28;20125;-79
2021/10/26 03:57:54;;;;;;;11.75;4.07;;;;;;;-0.74;75.95;100396.34;4941279;29;20139;-81
2021/10/26 04:00:20;;;;;;;15.10;4.70;;;;;;;-0.70;75.54;100400.59;4969735;28;20453;-83
2021/10/26 04:03:05;;;;;;;16.95;5.50;;;;;;;-0.69;75.62;100405.75;4972187;28;20077;-79
2021/10/26 04:08:08;;;;;;;27.83;10.40;;;;;;;-0.66;75.29;100399.66;4979587;28;20077;-81
2021/10/26 04:10:47;;;;;;;26.40;10.38;;;;;;;-0.64;75.47;100389.25;4927749;28;20035;-80
2021/10/26 04:13:13;;;;;;;12.30;4.60;;;;;;;-0.66;75.53;100387.53;4977271;28;20523;-81
2021/10/26 04:15:39;;;;;;;22.80;5.35;;;;;;;-0.63;75.37;100394.41;4958549;28;20048;-80
2021/10/26 04:18:05;;;;;;;15.43;4.07;;;;;;;-0.61;75.34;100397.84;4925833;29;20047;-79
2021/10/26 04:20:33;;;;;;;13.40;4.43;;;;;;;-0.63;75.14;100399.59;4958825;28;20042;-78
2021/10/26 04:23:02;;;;;;;15.02;4.65;;;;;;;-0.61;75.26;100397.84;4958316;28;20123;-81
2021/10/26 04:25:30;;;;;;;;;;;;;;;-0.58;75.27;100391.72;4944751;28;20038;-82
2021/10/26 04:28:00;;;;;;;16.33;4.47;;;;;;;-0.55;75.05;100392.53;4930038;28;19918;-81
2021/10/26 04:30:27;;;;;;;13.18;4.70;;;;;;;-0.48;75.01;100388.06;4959057;28;20051;-81
2021/10/26 04:32:54;;;;;;;14.65;4.72;;;;;;;-0.35;74.91;100383.44;4959518;28;20054;-79
2021/10/26 04:35:24;;;;;;;17.58;5.45;;;;;;;-0.01;74.11;100378.41;4944417;28;20078;-80
2021/10/26 04:37:53;;;;;;;17.52;5.10;;;;;;;0.31;73.17;100375.94;4959447;28;20130;-83
2021/10/26 04:40:19;;;;;;;12.95;4.45;;;;;;;0.88;71.78;100374.56;4960093;28;20042;-81
2021/10/26 04:42:45;;;;;;;11.82;4.57;;;;;;;1.39;69.93;100375.81;4958731;28;20105;-81
2021/10/26 04:45:11;;;;;;;11.10;4.95;;;;;;;1.73;68.70;100369.66;4977377;28;20039;-81
2021/10/26 04:47:37;;;;;;;13.75;4.40;;;;;;;1.95;67.24;100366.41;4958695;28;20051;-78
2021/10/26 04:50:06;;;;;;;13.55;4.55;;;;;;;2.02;66.86;100365.31;4958579;28;20043;-81
2021/10/26 04:52:35;;;;;;;14.52;4.47;;;;;;;2.28;65.46;100361.03;4928046;28;20049;-83
2021/10/26 04:55:02;;;;;;;16.02;4.75;;;;;;;2.36;65.20;100364.25;4927129;28;20163;-82
2021/10/26 04:57:28;;;;;;;13.48;5.30;;;;;;;2.63;63.81;100351.22;4926968;28;20039;-85
2021/10/26 05:00:11;;;;;;;16.92;5.47;;;;;;;2.99;62.60;100358.72;4944805;28;20054;-84
2021/10/26 05:02:37;;;;;;;17.33;4.65;;;;;;;3.31;62.30;100348.84;4926729;28;20428;-82
2021/10/26 05:05:05;;;;;;;23.77;5.05;;;;;;;3.30;61.73;100352.41;4959938;28;20072;-82
2021/10/26 05:07:32;;;;;;;14.60;4.70;;;;;;;2.91;62.01;100356.34;4912660;28;20038;-80
2021/10/26 05:09:58;;;;;;;11.65;4.38;;;;;;;2.61;62.71;100358.22;4960272;28;20062;-80
2021/10/26 05:12:23;;;;;;;12.75;5.10;;;;;;;2.39;63.69;100355.47;4960314;28;20500;-80
2021/10/26 05:14:50;;;;;;;11.00;4.95;;;;;;;2.52;62.98;100350.72;4976617;28;20043;-83
2021/10/26 05:17:36;;;;;;;15.13;4.90;;;;;;;2.49;63.05;100348.19;4977334;28;20055;-82
2021/10/26 05:20:22;;;;;;;13.15;4.82;;;;;;;2.41;63.18;100343.22;4962723;28;20415;-87
2021/10/26 05:23:10;;;;;;;15.10;4.60;;;;;;;2.53;63.47;100355.00;4943897;28;20114;-80
2021/10/26 05:26:01;;;;;;;9.57;4.80;;;;;;;2.67;62.60;100354.56;4956394;28;20130;-81
2021/10/26 05:28:34;;;;;;;17.33;5.40;;;;;;;2.73;62.87;100349.16;4943203;28;20038;-83
2021/10/26 05:31:00;;;;;;;12.57;4.45;;;;;;;2.71;62.23;100356.19;4958478;28;20064;-84
2021/10/26 05:33:26;;;;;;;10.75;4.68;;;;;;;2.78;62.75;100354.19;4971851;28;20447;-77
2021/10/26 05:35:52;;;;;;;13.15;4.80;;;;;;;2.70;62.26;100352.69;4973572;28;20038;-79
2021/10/26 05:38:18;;;;;;;11.25;5.43;;;;;;;2.59;62.15;100355.69;4941565;28;20074;-79
2021/10/26 05:40:46;;;;;;;15.18;4.82;;;;;;;2.66;62.50;100351.09;4958651;28;20074;-83
2021/10/26 05:43:11;;;;;;;15.68;5.35;;;;;;;2.77;61.87;100349.88;4960264;28;20451;-85
2021/10/26 05:45:44;;;;;;;13.48;5.78;;;;;;;3.07;61.44;100351.44;4942261;28;20075;-83
2021/10/26 05:48:15;;;;;;;13.80;5.22;;;;;;;3.66;59.91;100344.06;4954679;28;20051;-79
2021/10/26 05:50:43;;;;;;;18.75;5.28;;;;;;;4.10;59.04;100343.31;4928687;28;20371;-80
2021/10/26 05:53:09;;;;;;;22.60;6.10;;;;;;;4.61;57.38;100341.25;4942500;28;20049;-83
2021/10/26 05:55:37;;;;;;;16.55;5.60;;;;;;;4.70;56.27;100338.25;4958237;28;20061;-83
2021/10/26 05:58:04;;;;;;;23.80;6.90;;;;;;;5.25;54.94;100338.56;4941696;28;20041;-83
2021/10/26 06:00:31;;;;;;;12.23;5.10;;;;;;;5.78;54.92;100337.91;4938297;29;20041;-79
2021/10/26 06:02:57;;;;;;;21.50;8.23;;;;;;;5.61;54.02;100337.84;4926040;28;20066;-80
2021/10/26 06:05:25;;;;;;;14.70;5.22;;;;;;;5.59;54.26;100337.03;4944507;29;20039;-82
2021/10/26 06:07:51;;;;;;;25.55;8.32;;;;;;;5.71;53.17;100344.34;4962082;28;20046;-79
2021/10/26 06:10:18;;;;;;;31.67;11.55;;;;;;;6.01;53.08;100343.00;4953849;28;20070;-78
2021/10/26 06:12:53;;;;;;;20.10;7.93;;;;;;;5.89;52.59;100342.63;4923199;28;20047;-80
2021/10/26 06:15:19;;;;;;;13.38;6.18;;;;;;;5.77;52.61;100344.06;4972897;28;20041;-80
2021/10/26 06:17:45;;;;;;;13.15;4.93;;;;;;;5.84;52.37;100344.63;4941625;28;20046;-84
2021/10/26 06:20:11;;;;;;;17.85;5.55;;;;;;;5.94;51.61;100342.41;4957008;28;20038;-82
2021/10/26 06:22:40;;;;;;;17.52;5.47;;;;;;;6.08;51.66;100329.53;4916885;28;20066;-86
2021/10/26 06:25:07;;;;;;;14.38;6.65;;;;;;;6.40;51.43;100339.41;4937163;28;20057;-82
2021/10/26 06:27:51;;;;;;;14.93;6.10;;;;;;;6.72;50.78;100344.84;4927210;28;20035;-87
2021/10/26 06:30:17;;;;;;;15.35;5.95;;;;;;;6.96;49.81;100342.75;4923870;29;20129;-82
2021/10/26 06:32:55;;;;;;;16.35;6.00;;;;;;;6.93;49.38;100345.53;4938749;29;20043;-78
2021/10/26 06:35:47;;;;;;;49.10;18.27;;;;;;;7.06;49.50;100343.13;4953678;28;20046;-82
2021/10/26 06:38:17;;;;;;;21.85;9.32;;;;;;;6.80;50.50;100343.53;4935646;29;20045;-84
2021/10/26 06:40:43;;;;;;;16.05;7.28;;;;;;;6.85;49.43;100330.13;4941942;29;20047;-81
2021/10/26 06:43:42;;;;;;;19.52;6.93;;;;;;;7.52;48.18;100319.63;4920527;29;20122;-82
2021/10/26 06:46:29;;;;;;;15.02;7.00;;;;;;;7.37;47.78;100320.47;4905168;29;20050;-82
2021/10/26 06:49:14;;;;;;;22.58;7.05;;;;;;;7.86;47.80;100315.16;4907167;29;20043;-84
2021/10/26 06:52:16;;;;;;;22.50;7.82;;;;;;;8.36;45.99;100320.28;4920928;29;20047;-82
2021/10/26 06:55:01;;;;;;;17.30;6.70;;;;;;;8.71;45.54;100314.78;4932687;29;20043;-82
2021/10/26 06:57:49;;;;;;;24.90;9.80;;;;;;;8.58;45.39;100319.94;4925783;29;20040;-82
2021/10/26 07:00:18;;;;;;;27.25;8.73;;;;;;;8.69;45.15;100327.22;4893128;29;20060;-80
2021/10/26 07:03:03;;;;;;;16.65;7.50;;;;;;;8.72;44.76;100308.56;4932274;29;20040;-84
2021/10/26 07:05:48;;;;;;;18.15;7.10;;;;;;;9.28;43.28;100308.72;4908510;29;20063;-83
2021/10/26 07:08:32;;;;;;;38.03;13.35;;;;;;;9.92;42.63;100307.41;4936239;29;20040;-82
2021/10/26 07:11:17;;;;;;;33.60;11.50;;;;;;;10.89;40.53;100294.91;4906277;29;20428;-86
2021/10/26 07:13:46;;;;;;;24.48;11.73;;;;;;;11.29;39.41;100303.59;4936549;29;20146;-85
2021/10/26 07:16:13;;;;;;;35.83;14.55;;;;;;;11.52;39.52;100287.03;4875570;29;20043;-83
2021/10/26 07:18:41;;;;;;;16.67;7.25;;;;;;;10.70;40.14;100292.66;4916419;28;20078;-83
2021/10/26 07:21:07;;;;;;;21.48;7.95;;;;;;;11.08;39.53;100292.69;4961310;28;20073;-83
2021/10/26 07:23:52;;;;;;;26.35;11.25;;;;;;;11.48;38.83;100284.59;4958222;28;20436;-83
2021/10/26 07:26:34;;;;;;;30.42;12.88;;;;;;;11.39;38.78;100292.34;4956287;28;20106;-85
2021/10/26 07:29:05;;;;;;;64.47;27.05;;;;;;;11.69;38.57;100286.66;4928186;28;20058;-82
2021/10/26 07:31:31;;;;;;;33.85;14.80;;;;;;;11.45;38.22;100284.81;4944977;28;20049;-81
2021/10/26 07:33:59;;;;;;;20.35;8.88;;;;;;;11.51;38.19;100283.53;4929688;28;20535;-83
2021/10/26 07:36:50;;;;;;;16.35;9.13;;;;;;;11.08;38.98;100282.09;4930114;28;20047;-84
2021/10/26 07:41:58;;;;;;;33.38;12.15;;;;;;;11.69;37.93;100286.66;4942598;28;20527;-82
2021/10/26 07:44:58;;;;;;;17.10;7.93;;;;;;;11.84;37.70;100282.06;4931305;29;20051;-83
2021/10/26 07:47:36;;;;;;;17.63;7.57;;;;;;;11.73;37.36;100274.88;4923125;29;20043;-82
2021/10/26 07:50:07;;;;;;;20.23;7.72;;;;;;;12.42;36.45;100274.28;4919931;29;20067;-84
2021/10/26 07:52:34;;;;;;;17.70;7.60;;;;;;;12.43;35.95;100265.34;4904349;29;20175;-84
2021/10/26 07:55:09;;;;;;;20.45;8.45;;;;;;;12.17;36.87;100271.78;4921167;29;20063;-84
2021/10/26 07:57:35;;;;;;;18.63;7.78;;;;;;;12.41;36.27;100271.72;4939670;29;20044;-82
2021/10/26 08:00:03;;;;;;;21.88;7.05;;;;;;;12.42;36.22;100274.28;4925335;29;20043;-84
2021/10/26 08:02:30;;;;;;;25.15;7.13;;;;;;;11.93;36.73;100262.81;4909150;29;20046;-81
2021/10/26 08:05:18;;;;;;;23.02;7.65;;;;;;;12.26;36.97;100252.50;4937481;29;20148;-83
2021/10/26 08:07:44;;;;;;;17.95;8.02;;;;;;;12.20;36.83;100258.28;4907020;29;20050;-83
2021/10/26 08:10:14;;;;;;;21.27;7.93;;;;;;;12.71;36.01;100260.63;4906935;29;20047;-84
2021/10/26 08:12:42;;;;;;;23.75;10.82;;;;;;;12.44;35.52;100267.03;4922840;29;20111;-85
2021/10/26 08:15:10;;;;;;;18.08;8.00;;;;;;;12.28;36.26;100261.22;4892875;29;20059;-85
2021/10/26 08:17:36;;;;;;;14.50;6.80;;;;;;;11.92;36.81;100261.13;4922264;29;20440;-83
2021/10/26 08:20:03;;;;;;;22.58;7.47;;;;;;;11.78;37.26;100256.84;4906480;29;20058;-84
2021/10/26 08:22:33;;;;;;;26.67;8.63;;;;;;;11.81;37.08;100253.97;4876446;29;20059;-83
2021/10/26 08:25:05;;;;;;;19.23;8.30;;;;;;;12.04;36.68;100254.13;4875317;29;20056;-85
2021/10/26 08:27:32;;;;;;;232.45;89.82;;;;;;;12.27;36.58;100248.91;4874639;29;20108;-83
2021/10/26 08:32:47;;;;;;;18.08;7.45;;;;;;;12.61;36.26;100241.03;4906512;29;20497;-83
2021/10/26 08:35:21;;;;;;;30.73;10.23;;;;;;;12.72;36.23;100249.03;4890947;29;20056;-87
2021/10/26 08:37:59;;;;;;;18.48;8.88;;;;;;;11.87;36.60;100243.88;4875831;29;20486;-80
2021/10/26 08:40:35;;;;;;;35.08;13.00;;;;;;;11.71;37.21;100252.94;4898310;29;20062;-85
2021/10/26 08:43:07;;;;;;;28.45;9.65;;;;;;;12.20;36.83;100247.66;4894323;29;20106;-84
2021/10/26 08:45:36;;;;;;;21.70;9.50;;;;;;;12.29;36.10;100244.34;4905846;29;20048;-88
2021/10/26 08:48:24;;;;;;;21.13;7.45;;;;;;;12.20;36.25;100252.97;4894483;29;20079;-83
2021/10/26 08:50:55;;;;;;;19.50;8.07;;;;;;;11.99;36.86;100245.66;4924096;28;20050;-80
2021/10/26 08:53:29;;;;;;;22.08;8.07;;;;;;;11.80;37.26;100244.34;4932642;28;20050;-85
2021/10/26 08:56:00;;;;;;;16.65;7.80;;;;;;;11.15;37.49;100235.72;4947667;28;20038;-86
2021/10/26 08:58:38;;;;;;;23.17;8.63;;;;;;;11.03;38.38;100233.06;4948560;28;20054;-84
2021/10/26 09:01:06;;;;;;;21.92;9.15;;;;;;;10.68;39.16;100229.28;4964523;28;20067;-83
2021/10/26 09:03:36;;;;;;;19.98;7.97;;;;;;;10.90;38.99;100241.84;4933471;28;20133;-81
2021/10/26 09:06:03;;;;;;;25.05;9.23;;;;;;;11.00;39.48;100227.06;4932378;28;20038;-83
2021/10/26 09:08:30;;;;;;;21.00;7.97;;;;;;;10.65;39.47;100232.13;4964224;28;20047;-86
2021/10/26 09:11:28;;;;;;;22.35;7.90;;;;;;;10.73;39.30;100221.88;4905327;29;20055;-83
2021/10/26 09:17:26;;;;;;;25.73;8.13;;;;;;;10.43;39.60;100224.81;4902105;29;20045;-84
2021/10/26 09:20:21;;;;;;;24.33;8.88;;;;;;;10.84;39.62;100231.69;4887627;29;20053;-83
2021/10/26 09:22:55;;;;;;;19.40;7.55;;;;;;;11.10;38.61;100227.25;4869004;29;20040;-82
2021/10/26 09:25:39;;;;;;;18.30;7.72;;;;;;;11.49;38.08;100214.75;4869258;29;20048;-83
2021/10/26 09:28:10;;;;;;;;;;;;;;;11.83;37.36;100208.81;4872082;29;20080;-85
2021/10/26 09:30:37;;;;;;;;;;;;;;;12.01;37.17;100213.72;4888431;29;20412;-85
2021/10/26 09:33:07;;;;;;;20.42;6.93;;;;;;;11.97;37.08;100199.84;4882764;29;19927;-86
2021/10/26 09:35:34;;;;;;;21.05;8.90;;;;;;;12.25;36.64;100203.06;4850804;29;20083;-85
2021/10/26 09:38:04;;;;;;;31.80;10.95;;;;;;;12.24;36.87;100196.94;4865710;29;20525;-85
2021/10/26 09:40:39;;;;;;;23.90;8.32;;;;;;;12.46;36.42;100201.47;4882663;29;20139;-84
2021/10/26 09:43:10;;;;;;;21.98;7.75;;;;;;;12.34;36.22;100188.31;4922601;29;20052;-85
2021/10/26 09:45:36;;;;;;;23.67;9.95;;;;;;;12.34;36.66;100180.34;4923882;29;20141;-85
2021/10/26 09:48:13;;;;;;;23.17;9.57;;;;;;;12.50;36.24;100174.69;4913614;29;20077;-82
2021/10/26 09:50:40;;;;;;;14.60;6.82;;;;;;;12.66;35.97;100164.59;4919687;29;20051;-87
2021/10/26 09:53:11;;;;;;;15.43;7.18;;;;;;;12.53;35.66;100174.47;4921387;29;20119;-84
2021/10/26 09:55:43;;;;;;;19.92;6.97;;;;;;;12.48;36.25;100155.41;4922100;29;20548;-84
2021/10/26 09:58:14;;;;;;;23.67;7.88;;;;;;;12.62;35.97;100149.84;4932974;29;20693;-81
2021/10/26 10:00:48;;;;;;;20.83;7.60;;;;;;;12.91;35.33;100147.56;4894131;29;20044;-85
2021/10/26 10:03:21;;;;;;;18.25;7.85;;;;;;;12.98;35.38;100153.22;4880680;29;20047;-86
2021/10/26 10:06:09;;;;;;;17.02;7.80;;;;;;;12.66;35.87;100138.03;4928154;29;20035;-82
2021/10/26 10:08:42;;;;;;;19.35;7.95;;;;;;;12.66;35.76;100147.81;4912578;29;20046;-81
2021/10/26 10:11:21;;;;;;;18.58;7.25;;;;;;;12.52;35.78;100135.63;4924770;29;20384;-82
2021/10/26 10:13:56;;;;;;;22.02;8.82;;;;;;;12.95;35.64;100142.84;4938600;29;20035;-80
2021/10/26 10:16:25;;;;;;;16.67;6.47;;;;;;;12.78;35.17;100136.22;4925476;29;20046;-81
2021/10/26 10:18:53;;;;;;;14.45;6.40;;;;;;;12.74;35.50;100135.63;4909513;29;20051;-84
2021/10/26 10:21:24;;;;;;;19.70;7.72;;;;;;;12.79;35.80;100122.00;4926408;29;20130;-84
2021/10/26 10:24:05;;;;;;;22.05;8.52;;;;;;;12.89;35.61;100128.25;4957963;29;20047;-82
2021/10/26 10:26:35;;;;;;;20.05;7.70;;;;;;;12.78;35.27;100121.16;4925157;29;20046;-83
2021/10/26 10:29:01;;;;;;;22.35;8.18;;;;;;;12.49;35.57;100122.59;4941679;29;20123;-85
2021/10/26 10:31:28;;;;;;;16.90;7.10;;;;;;;12.26;35.82;100119.91;4943396;29;20063;-84
2021/10/26 10:33:57;;;;;;;19.67;6.88;;;;;;;12.18;36.25;100115.19;4941251;29;20059;-81
2021/10/26 10:36:24;;;;;;;26.40;8.73;;;;;;;12.22;36.35;100114.00;4926426;29;20047;-82
2021/10/26 10:38:52;;;;;;;24.85;7.93;;;;;;;12.53;35.77;100108.13;4928735;29;20045;-83
2021/10/26 10:41:30;;;;;;;22.88;7.50;;;;;;;12.65;35.32;100099.19;4939726;29;20478;-88
2021/10/26 10:44:20;;;;;;;27.80;8.93;;;;;;;12.20;35.57;100107.97;4941740;29;20449;-83
2021/10/26 10:46:52;;;;;;;18.13;7.95;;;;;;;11.98;36.03;100106.13;4905980;29;20066;-83
2021/10/26 10:49:22;;;;;;;22.40;7.30;;;;;;;11.82;36.29;100099.31;4927113;29;20384;-84
2021/10/26 10:52:21;;;;;;;21.10;8.35;;;;;;;11.86;36.53;100102.53;4911187;29;20043;-86
2021/10/26 10:57:38;;;;;;;23.90;8.50;;;;;;;11.40;37.55;100084.81;4901470;29;20044;-82
2021/10/26 11:00:33;;;;;;;19.15;8.02;;;;;;;11.40;37.36;100085.66;4871083;29;20391;-84
2021/10/26 11:02:59;;;;;;;18.65;7.55;;;;;;;11.13;37.80;100073.47;4885974;29;20044;-84
2021/10/26 11:05:38;;;;;;;20.35;7.07;;;;;;;10.95;38.18;100070.38;4918233;29;20084;-83
2021/10/26 11:08:13;;;;;;;16.55;6.25;;;;;;;10.83;37.87;100066.81;4889181;29;20044;-81
2021/10/26 11:10:57;;;;;;;21.23;7.97;;;;;;;10.75;38.51;100063.84;4902066;29;20048;-84
2021/10/26 11:13:29;;;;;;;20.02;6.85;;;;;;;10.56;38.24;100068.78;4902596;29;20457;-82
2021/10/26 11:16:00;;;;;;;39.22;14.73;;;;;;;10.42;38.46;100062.66;4870989;29;20147;-83
2021/10/26 11:18:50;;;;;;;24.33;8.18;;;;;;;10.59;38.55;100045.63;4884661;29;20116;-84
2021/10/26 11:21:25;;;;;;;19.30;8.32;;;;;;;10.38;38.87;100047.97;4884669;29;20051;-81
2021/10/26 11:23:58;;;;;;;25.45;7.30;;;;;;;10.46;38.30;100045.63;4885512;29;20048;-83
2021/10/26 11:26:36;;;;;;;24.75;8.52;;;;;;;10.55;38.46;100052.06;4915562;29;20104;-82
2021/10/26 11:29:07;;;;;;;33.40;11.05;;;;;;;10.61;38.53;100053.44;4899477;29;20071;-82
2021/10/26 11:31:45;;;;;;;21.92;9.63;;;;;;;10.55;38.08;100044.13;4894610;29;20062;-81
2021/10/26 11:34:17;;;;;;;15.98;7.93;;;;;;;10.68;38.04;100044.94;4906176;29;20083;-80
2021/10/26 11:36:44;;;;;;;20.75;6.57;;;;;;;10.79;37.87;100056.56;4910595;29;20114;-82
2021/10/26 11:39:13;;;;;;;20.65;7.07;;;;;;;10.76;37.85;100048.84;4908224;29;20366;-86
2021/10/26 11:41:43;;;;;;;18.92;6.85;;;;;;;10.62;38.38;100041.91;4922858;29;20071;-83
2021/10/26 11:44:11;;;;;;;21.15;6.60;;;;;;;10.42;38.37;100038.00;4889362;29;20056;-84
2021/10/26 11:46:40;;;;;;;19.33;7.65;;;;;;;10.38;38.84;100028.63;4886197;29;20056;-79
2021/10/26 11:49:08;;;;;;;15.93;6.65;;;;;;;10.19;38.73;100038.66;4887510;29;20112;-82
2021/10/26 11:51:42;;;;;;;15.43;6.53;;;;;;;10.02;38.90;100028.41;4887191;29;20048;-81